createdAt,value
2018-08-27T00:00:37.226Z,3.27
2018-08-27T00:03:04.835Z,3.30
2018-08-27T00:05:32.430Z,3.07
2018-08-27T00:08:00.038Z,3.50
2018-08-27T00:10:27.651Z,3.17
2018-08-27T00:12:55.280Z,2.87
2018-08-27T00:15:22.828Z,3.27
2018-08-27T00:17:50.430Z,3.10
2018-08-27T00:20:18.016Z,3.40
2018-08-27T00:22:46.109Z,2.97
2018-08-27T00:25:13.695Z,3.77
2018-08-27T00:27:41.259Z,3.10
2018-08-27T00:30:08.825Z,3.50
2018-08-27T00:32:36.387Z,2.70
2018-08-27T00:35:03.959Z,2.80
2018-08-27T00:37:31.543Z,2.90
2018-08-27T00:39:59.143Z,2.47
2018-08-27T00:42:27.065Z,2.73
2018-08-27T00:44:54.637Z,2.97
2018-08-27T00:47:22.385Z,2.97
2018-08-27T00:49:50.013Z,2.80
2018-08-27T00:52:17.581Z,2.90
2018-08-27T00:54:45.137Z,3.03
2018-08-27T00:57:12.712Z,2.97
2018-08-27T00:59:40.294Z,3.73
2018-08-27T01:02:07.853Z,2.80
2018-08-27T01:04:35.433Z,2.83
2018-08-27T01:07:03.027Z,3.27
2018-08-27T01:09:30.555Z,2.87
2018-08-27T01:11:58.156Z,2.70
2018-08-27T01:14:25.715Z,3.00
2018-08-27T01:16:53.315Z,3.30
2018-08-27T01:19:20.891Z,3.22
2018-08-27T01:21:48.481Z,2.70
2018-08-27T01:24:16.096Z,2.43
2018-08-27T01:26:44.051Z,2.70
2018-08-27T01:29:11.774Z,3.30
2018-08-27T01:31:39.314Z,3.23
2018-08-27T01:34:06.934Z,2.73
2018-08-27T01:36:34.525Z,3.12
2018-08-27T01:39:02.180Z,2.90
2018-08-27T01:41:29.746Z,3.33
2018-08-27T01:43:57.382Z,3.37
2018-08-27T01:46:24.921Z,3.33
2018-08-27T01:48:52.469Z,3.30
2018-08-27T01:51:20.069Z,3.50
2018-08-27T01:53:47.616Z,2.90
2018-08-27T01:56:15.154Z,3.00
2018-08-27T01:58:48.449Z,3.40
2018-08-27T02:01:16.054Z,2.95
2018-08-27T02:03:43.684Z,2.83
2018-08-27T02:06:11.258Z,3.20
2018-08-27T02:08:38.804Z,3.23
2018-08-27T02:11:06.444Z,2.80
2018-08-27T02:13:34.052Z,3.00
2018-08-27T02:16:01.666Z,3.02
2018-08-27T02:18:29.237Z,3.17
2018-08-27T02:20:56.818Z,3.80
2018-08-27T02:23:24.372Z,4.42
2018-08-27T02:25:51.946Z,3.72
2018-08-27T02:28:19.540Z,3.00
2018-08-27T02:30:47.129Z,2.85
2018-08-27T02:33:14.688Z,3.67
2018-08-27T02:35:42.296Z,3.58
2018-08-27T02:38:09.845Z,2.62
2018-08-27T02:40:37.449Z,3.70
2018-08-27T02:43:05.037Z,3.17
2018-08-27T02:45:32.608Z,2.85
2018-08-27T02:48:00.649Z,2.65
2018-08-27T02:50:28.237Z,2.73
2018-08-27T02:52:55.804Z,2.35
2018-08-27T02:55:23.508Z,2.90
2018-08-27T02:57:51.098Z,3.27
2018-08-27T03:00:18.950Z,3.20
2018-08-27T03:02:46.534Z,3.10
2018-08-27T03:05:14.586Z,3.10
2018-08-27T03:07:42.152Z,2.70
2018-08-27T03:10:09.698Z,3.20
2018-08-27T03:12:37.309Z,3.17
2018-08-27T03:15:05.104Z,3.00
2018-08-27T03:17:32.649Z,2.90
2018-08-27T03:20:00.217Z,3.33
2018-08-27T03:22:27.785Z,3.47
2018-08-27T03:24:55.407Z,2.72
2018-08-27T03:27:23.033Z,3.60
2018-08-27T03:29:50.649Z,3.40
2018-08-27T03:32:18.224Z,2.92
2018-08-27T03:34:45.853Z,2.47
2018-08-27T03:37:13.419Z,3.45
2018-08-27T03:39:41.005Z,2.90
2018-08-27T03:42:09.099Z,2.90
2018-08-27T03:44:36.660Z,3.15
2018-08-27T03:47:04.315Z,3.17
2018-08-27T03:49:31.891Z,3.02
2018-08-27T03:51:59.438Z,3.08
2018-08-27T03:54:27.172Z,2.85
2018-08-27T03:56:54.736Z,3.42
2018-08-27T03:59:22.280Z,3.40
2018-08-27T04:01:49.865Z,2.75
2018-08-27T04:04:17.414Z,2.70
2018-08-27T04:06:45.051Z,2.67
2018-08-27T04:09:12.632Z,3.00
2018-08-27T04:11:40.186Z,2.92
2018-08-27T04:14:07.744Z,2.95
2018-08-27T04:16:35.305Z,2.65
2018-08-27T04:19:02.900Z,3.35
2018-08-27T04:21:30.472Z,3.17
2018-08-27T04:23:58.066Z,3.65
2018-08-27T04:26:25.637Z,3.33
2018-08-27T04:28:53.306Z,3.33
2018-08-27T04:31:20.788Z,3.10
2018-08-27T04:33:48.403Z,3.58
2018-08-27T04:36:15.992Z,2.80
2018-08-27T04:38:43.580Z,3.62
2018-08-27T04:41:11.176Z,3.27
2018-08-27T04:43:38.764Z,3.58
2018-08-27T04:46:06.397Z,3.65
2018-08-27T04:48:34.166Z,3.08
2018-08-27T04:51:01.750Z,3.00
2018-08-27T04:53:29.334Z,3.05
2018-08-27T04:55:56.884Z,3.20
2018-08-27T04:58:26.335Z,3.98
2018-08-27T05:00:53.923Z,3.05
2018-08-27T05:03:21.546Z,3.27
2018-08-27T05:05:49.088Z,3.80
2018-08-27T05:08:16.670Z,3.30
2018-08-27T05:10:44.190Z,3.20
2018-08-27T05:13:11.840Z,3.62
2018-08-27T05:15:39.346Z,3.80
2018-08-27T05:18:06.984Z,3.65
2018-08-27T05:20:34.565Z,3.37
2018-08-27T05:23:02.166Z,3.67
2018-08-27T05:25:29.844Z,3.77
2018-08-27T05:27:57.471Z,3.17
2018-08-27T05:30:25.088Z,2.83
2018-08-27T05:32:52.648Z,3.15
2018-08-27T05:35:20.267Z,3.65
2018-08-27T05:37:47.902Z,4.03
2018-08-27T05:40:15.873Z,3.52
2018-08-27T05:42:43.827Z,2.62
2018-08-27T05:45:11.499Z,3.20
2018-08-27T05:47:39.229Z,3.60
2018-08-27T05:50:06.913Z,3.10
2018-08-27T05:52:34.555Z,3.40
2018-08-27T05:55:02.239Z,3.52
2018-08-27T05:57:29.923Z,3.23
2018-08-27T05:59:57.603Z,3.73
2018-08-27T06:02:25.591Z,3.17
2018-08-27T06:04:53.205Z,3.00
2018-08-27T06:07:20.853Z,3.10
2018-08-27T06:09:48.497Z,3.47
2018-08-27T06:12:16.126Z,4.23
2018-08-27T06:14:43.873Z,4.10
2018-08-27T06:17:11.661Z,3.47
2018-08-27T06:19:39.260Z,3.40
2018-08-27T06:22:07.080Z,3.07
2018-08-27T06:24:34.597Z,3.30
2018-08-27T06:27:02.276Z,2.80
2018-08-27T06:29:30.019Z,3.23
2018-08-27T06:31:57.722Z,2.80
2018-08-27T06:34:25.401Z,3.27
2018-08-27T06:36:53.048Z,2.77
2018-08-27T06:39:20.690Z,3.33
2018-08-27T06:41:48.281Z,2.27
2018-08-27T06:44:15.889Z,2.90
2018-08-27T06:46:43.532Z,2.47
2018-08-27T06:49:11.172Z,2.93
2018-08-27T06:51:38.924Z,2.83
2018-08-27T06:54:06.574Z,3.47
2018-08-27T06:56:34.396Z,2.70
2018-08-27T06:59:01.966Z,2.53
2018-08-27T07:01:29.618Z,2.77
2018-08-27T07:03:57.356Z,2.63
2018-08-27T07:06:25.057Z,3.10
2018-08-27T07:08:52.786Z,2.87
2018-08-27T07:11:20.502Z,2.50
2018-08-27T07:13:48.256Z,2.73
2018-08-27T07:16:15.904Z,3.00
2018-08-27T07:18:43.615Z,2.83
2018-08-27T07:21:11.447Z,2.50
2018-08-27T07:23:39.128Z,2.53
2018-08-27T07:26:06.848Z,2.60
2018-08-27T07:28:34.498Z,2.30
2018-08-27T07:31:02.181Z,2.50
2018-08-27T07:33:29.856Z,2.70
2018-08-27T07:35:57.516Z,3.90
2018-08-27T07:38:25.160Z,2.67
2018-08-27T07:40:52.846Z,2.60
2018-08-27T07:43:20.526Z,2.73
2018-08-27T07:45:48.103Z,2.83
2018-08-27T07:48:15.782Z,2.90
2018-08-27T07:50:43.421Z,2.70
2018-08-27T07:53:11.086Z,2.27
2018-08-27T07:55:38.742Z,2.30
2018-08-27T07:58:06.384Z,2.73
2018-08-27T08:00:34.108Z,3.03
2018-08-27T08:03:01.773Z,2.03
2018-08-27T08:05:29.454Z,2.17
2018-08-27T08:07:57.266Z,2.57
2018-08-27T08:10:24.951Z,2.80
2018-08-27T08:12:52.619Z,2.90
2018-08-27T08:15:20.805Z,2.63
2018-08-27T08:17:48.890Z,2.10
2018-08-27T08:20:16.693Z,2.23
2018-08-27T08:22:44.449Z,2.13
2018-08-27T08:25:12.151Z,2.23
2018-08-27T08:27:39.749Z,2.50
2018-08-27T08:30:07.475Z,2.17
2018-08-27T08:32:35.095Z,2.63
2018-08-27T08:35:02.841Z,2.23
2018-08-27T08:37:30.497Z,2.03
2018-08-27T08:39:58.209Z,2.23
2018-08-27T08:42:25.856Z,2.50
2018-08-27T08:44:53.523Z,2.17
2018-08-27T08:47:21.173Z,2.43
2018-08-27T08:49:48.847Z,2.07
2018-08-27T08:52:16.462Z,2.23
2018-08-27T08:54:44.262Z,2.53
2018-08-27T08:57:12.091Z,1.80
2018-08-27T08:59:39.710Z,2.70
2018-08-27T09:02:07.341Z,2.17
2018-08-27T09:04:35.001Z,2.37
2018-08-27T09:07:02.698Z,3.20
2018-08-27T09:09:30.281Z,2.40
2018-08-27T09:11:57.849Z,2.00
2018-08-27T09:14:25.521Z,2.13
2018-08-27T09:16:53.177Z,2.10
2018-08-27T09:19:20.712Z,2.00
2018-08-27T09:21:48.264Z,2.30
2018-08-27T09:24:15.836Z,2.00
2018-08-27T09:26:43.632Z,2.43
2018-08-27T09:29:11.206Z,2.73
2018-08-27T09:31:38.833Z,2.20
2018-08-27T09:34:06.472Z,2.27
2018-08-27T09:36:34.085Z,2.10
2018-08-27T09:39:01.691Z,1.70
2018-08-27T09:41:29.322Z,1.90
2018-08-27T09:43:56.904Z,1.90
2018-08-27T09:46:24.518Z,1.87
2018-08-27T09:48:52.084Z,1.70
2018-08-27T09:51:19.682Z,2.17
2018-08-27T09:53:47.364Z,2.10
2018-08-27T09:56:14.998Z,1.97
2018-08-27T09:58:42.618Z,1.83
2018-08-27T10:01:15.751Z,1.83
2018-08-27T10:03:43.386Z,2.07
2018-08-27T10:06:10.935Z,1.80
2018-08-27T10:08:38.533Z,1.70
2018-08-27T10:11:06.159Z,1.80
2018-08-27T10:13:33.758Z,1.93
2018-08-27T10:16:01.405Z,1.97
2018-08-27T10:18:29.018Z,1.73
2018-08-27T10:20:57.577Z,1.70
2018-08-27T10:23:25.312Z,1.80
2018-08-27T10:25:52.945Z,1.57
2018-08-27T10:28:20.641Z,1.70
2018-08-27T10:30:48.245Z,1.13
2018-08-27T10:33:15.833Z,1.20
2018-08-27T10:35:43.660Z,1.30
2018-08-27T10:38:11.293Z,1.90
2018-08-27T10:40:38.881Z,1.10
2018-08-27T10:43:06.529Z,1.03
2018-08-27T10:45:34.150Z,1.43
2018-08-27T10:48:01.703Z,1.70
2018-08-27T10:50:29.394Z,1.30
2018-08-27T10:52:56.997Z,1.43
2018-08-27T10:55:24.671Z,1.20
2018-08-27T10:57:52.335Z,1.40
2018-08-27T11:00:19.985Z,1.27
2018-08-27T11:02:47.625Z,1.10
2018-08-27T11:05:15.743Z,1.20
2018-08-27T11:07:47.862Z,1.37
2018-08-27T11:10:23.173Z,1.40
2018-08-27T11:12:50.813Z,0.97
2018-08-27T11:15:18.951Z,1.60
2018-08-27T11:17:46.859Z,1.73
2018-08-27T11:20:14.645Z,1.63
2018-08-27T11:22:42.254Z,1.20
2018-08-27T11:25:09.893Z,1.60
2018-08-27T11:27:37.726Z,1.33
2018-08-27T11:30:06.421Z,1.50
2018-08-27T11:32:34.018Z,1.40
2018-08-27T11:35:01.665Z,1.57
2018-08-27T11:37:29.357Z,1.40
2018-08-27T11:39:57.064Z,1.60
2018-08-27T11:42:24.723Z,1.60
2018-08-27T11:44:52.451Z,1.63
2018-08-27T11:47:20.251Z,1.80
2018-08-27T11:49:47.896Z,1.53
2018-08-27T11:52:15.567Z,1.70
2018-08-27T11:54:43.368Z,1.63
2018-08-27T11:57:11.065Z,1.57
2018-08-27T11:59:38.767Z,1.40
2018-08-27T12:02:06.495Z,1.93
2018-08-27T12:04:34.280Z,1.60
2018-08-27T12:07:01.952Z,1.93
2018-08-27T12:09:29.658Z,1.40
2018-08-27T12:11:57.342Z,1.80
2018-08-27T12:14:25.712Z,1.73
2018-08-27T12:16:53.788Z,1.80
2018-08-27T12:19:21.478Z,2.10
2018-08-27T12:21:49.448Z,1.97
2018-08-27T12:24:17.200Z,2.97
2018-08-27T12:26:44.848Z,2.00
2018-08-27T12:29:12.555Z,1.97
2018-08-27T12:31:40.228Z,2.00
2018-08-27T12:34:07.934Z,1.80
2018-08-27T12:36:35.674Z,1.50
2018-08-27T12:39:04.864Z,1.90
2018-08-27T12:41:32.578Z,2.23
2018-08-27T12:44:00.234Z,1.80
2018-08-27T12:46:27.853Z,1.80
2018-08-27T12:48:55.555Z,2.53
2018-08-27T12:51:23.932Z,2.10
2018-08-27T12:53:51.573Z,1.50
2018-08-27T12:56:19.274Z,2.10
2018-08-27T12:58:46.945Z,1.70
2018-08-27T13:01:14.581Z,1.80
2018-08-27T13:03:42.303Z,2.03
2018-08-27T13:06:10.016Z,1.60
2018-08-27T13:08:37.701Z,1.83
2018-08-27T13:11:05.341Z,1.57
2018-08-27T13:13:33.019Z,1.63
2018-08-27T13:16:00.675Z,2.13
2018-08-27T13:18:28.351Z,1.97
2018-08-27T13:20:55.967Z,1.90
2018-08-27T13:23:23.637Z,1.70
2018-08-27T13:25:51.397Z,1.77
2018-08-27T13:28:19.007Z,1.73
2018-08-27T13:30:46.676Z,1.90
2018-08-27T13:33:14.315Z,1.90
2018-08-27T13:35:42.083Z,2.00
2018-08-27T13:38:09.676Z,2.43
2018-08-27T13:40:37.494Z,1.83
2018-08-27T13:43:05.015Z,1.90
2018-08-27T13:45:33.350Z,1.90
2018-08-27T13:48:01.527Z,2.03
2018-08-27T13:50:29.284Z,2.00
2018-08-27T13:52:57.002Z,2.20
2018-08-27T13:55:24.676Z,1.97
2018-08-27T13:57:52.304Z,2.37
2018-08-27T14:00:21.636Z,1.83
2018-08-27T14:02:49.620Z,2.07
2018-08-27T14:05:17.332Z,2.50
2018-08-27T14:07:45.036Z,2.00
2018-08-27T14:10:13.029Z,1.80
2018-08-27T14:12:41.189Z,2.00
2018-08-27T14:15:08.923Z,1.97
2018-08-27T14:17:36.639Z,2.13
2018-08-27T14:20:04.563Z,2.00
2018-08-27T14:22:35.257Z,2.20
2018-08-27T14:25:06.362Z,2.13
2018-08-27T14:27:34.001Z,1.93
2018-08-27T14:30:01.666Z,2.13
2018-08-27T14:32:29.530Z,2.17
2018-08-27T14:34:57.308Z,2.13
2018-08-27T14:37:24.988Z,2.00
2018-08-27T14:39:52.501Z,2.03
2018-08-27T14:42:20.177Z,1.93
2018-08-27T14:44:47.622Z,1.77
2018-08-27T14:47:15.164Z,2.03
2018-08-27T14:49:42.736Z,2.13
2018-08-27T14:52:10.315Z,2.20
2018-08-27T14:54:37.889Z,2.03
2018-08-27T14:57:08.909Z,1.80
2018-08-27T14:59:36.721Z,1.73
2018-08-27T15:02:04.463Z,1.93
2018-08-27T15:04:32.171Z,2.27
2018-08-27T15:06:59.723Z,2.03
2018-08-27T15:09:28.876Z,1.93
2018-08-27T15:11:56.686Z,1.90
2018-08-27T15:14:24.298Z,2.00
2018-08-27T15:16:51.927Z,2.13
2018-08-27T15:19:19.530Z,1.70
2018-08-27T15:21:47.120Z,1.87
2018-08-27T15:24:14.656Z,2.40
2018-08-27T15:26:42.237Z,2.43
2018-08-27T15:29:09.834Z,2.23
2018-08-27T15:31:37.382Z,2.20
2018-08-27T15:34:05.434Z,1.90
2018-08-27T15:36:33.000Z,2.00
2018-08-27T15:39:00.610Z,2.30
2018-08-27T15:41:28.233Z,1.93
2018-08-27T15:43:55.833Z,2.10
2018-08-27T15:46:29.071Z,2.40
2018-08-27T15:48:56.739Z,2.57
2018-08-27T15:51:24.442Z,2.47
2018-08-27T15:53:52.519Z,2.50
2018-08-27T15:56:20.644Z,2.60
2018-08-27T15:58:48.137Z,2.07
2018-08-27T16:01:15.757Z,2.27
2018-08-27T16:03:44.187Z,1.90
2018-08-27T16:06:12.434Z,1.77
2018-08-27T16:08:40.422Z,2.13
2018-08-27T16:11:08.035Z,2.10
2018-08-27T16:13:36.077Z,2.00
2018-08-27T16:16:03.670Z,1.80
2018-08-27T16:18:31.269Z,1.73
2018-08-27T16:20:58.867Z,2.27
2018-08-27T16:23:26.554Z,2.07
2018-08-27T16:25:54.110Z,2.27
2018-08-27T16:28:21.633Z,2.20
2018-08-27T16:30:49.182Z,1.90
2018-08-27T16:33:16.814Z,2.07
2018-08-27T16:35:44.390Z,2.10
2018-08-27T16:38:11.949Z,1.93
2018-08-27T16:40:39.602Z,1.93
2018-08-27T16:43:07.220Z,2.40
2018-08-27T16:45:34.928Z,2.20
2018-08-27T16:48:02.515Z,1.97
2018-08-27T16:50:30.077Z,2.50
2018-08-27T16:52:57.687Z,2.70
2018-08-27T16:55:25.344Z,2.13
2018-08-27T16:57:52.903Z,2.33
2018-08-27T17:00:20.489Z,2.80
2018-08-27T17:02:48.099Z,2.43
2018-08-27T17:05:15.617Z,2.10
2018-08-27T17:07:43.227Z,2.70
2018-08-27T17:10:10.782Z,2.20
2018-08-27T17:12:38.376Z,3.33
2018-08-27T17:15:06.532Z,2.33
2018-08-27T17:17:34.154Z,2.73
2018-08-27T17:20:01.696Z,3.03
2018-08-27T17:22:29.312Z,2.10
2018-08-27T17:24:56.842Z,2.47
2018-08-27T17:27:24.447Z,2.73
2018-08-27T17:29:52.041Z,2.77
2018-08-27T17:32:19.645Z,3.70
2018-08-27T17:34:47.236Z,2.67
2018-08-27T17:37:14.874Z,2.70
2018-08-27T17:39:42.422Z,3.30
2018-08-27T17:42:10.018Z,3.10
2018-08-27T17:44:37.578Z,3.50
2018-08-27T17:47:05.263Z,2.67
2018-08-27T17:49:32.827Z,2.50
2018-08-27T17:52:01.531Z,2.10
2018-08-27T17:54:29.114Z,2.80
2018-08-27T17:56:56.751Z,3.50
2018-08-27T17:59:24.339Z,2.77
2018-08-27T18:01:51.983Z,3.30
2018-08-27T18:04:19.652Z,2.37
2018-08-27T18:06:47.267Z,2.50
2018-08-27T18:09:14.960Z,2.47
2018-08-27T18:11:42.665Z,2.93
2018-08-27T18:14:10.311Z,2.80
2018-08-27T18:16:37.996Z,2.10
2018-08-27T18:19:05.648Z,2.80
2018-08-27T18:21:33.303Z,2.30
2018-08-27T18:24:01.018Z,2.80
2018-08-27T18:26:28.892Z,2.70
2018-08-27T18:28:56.496Z,3.17
2018-08-27T18:31:24.127Z,3.60
2018-08-27T18:33:51.886Z,3.30
2018-08-27T18:36:20.504Z,3.80
2018-08-27T18:38:48.197Z,2.77
2018-08-27T18:41:15.863Z,2.10
2018-08-27T18:43:43.678Z,3.10
2018-08-27T18:46:11.307Z,2.70
2018-08-27T18:48:38.995Z,3.47
2018-08-27T18:51:06.689Z,2.50
2018-08-27T18:53:34.396Z,2.43
2018-08-27T18:56:03.926Z,3.10
2018-08-27T18:58:31.590Z,2.40
2018-08-27T19:00:59.327Z,3.60
2018-08-27T19:03:26.967Z,2.53
2018-08-27T19:05:55.779Z,2.53
2018-08-27T19:08:23.471Z,3.20
2018-08-27T19:10:51.256Z,2.73
2018-08-27T19:13:19.150Z,2.60
2018-08-27T19:15:46.860Z,2.37
2018-08-27T19:18:14.517Z,2.87
2018-08-27T19:20:42.297Z,2.07
2018-08-27T19:23:10.009Z,2.87
2018-08-27T19:25:37.824Z,1.70
2018-08-27T19:28:05.702Z,2.00
2018-08-27T19:30:33.471Z,1.73
2018-08-27T19:33:01.141Z,2.17
2018-08-27T19:35:28.853Z,1.77
2018-08-27T19:37:57.542Z,1.70
2018-08-27T19:40:25.493Z,2.40
2018-08-27T19:42:53.751Z,2.23
2018-08-27T19:45:21.701Z,2.40
2018-08-27T19:47:49.778Z,3.30
2018-08-27T19:50:17.459Z,2.80
2018-08-27T19:52:45.167Z,2.00
2018-08-27T19:55:12.938Z,2.50
2018-08-27T19:57:41.311Z,2.20
2018-08-27T20:00:09.053Z,2.57
2018-08-27T20:02:36.860Z,2.37
2018-08-27T20:05:04.556Z,2.00
2018-08-27T20:07:32.268Z,2.07
2018-08-27T20:09:59.959Z,2.37
2018-08-27T20:12:27.634Z,3.60
2018-08-27T20:14:55.263Z,2.50
2018-08-27T20:17:22.933Z,2.70
2018-08-27T20:19:50.540Z,2.43
2018-08-27T20:22:18.263Z,2.40
2018-08-27T20:24:45.971Z,2.23
2018-08-27T20:27:13.633Z,2.73
2018-08-27T20:29:41.255Z,2.90
2018-08-27T20:32:08.880Z,1.97
2018-08-27T20:34:36.464Z,2.13
2018-08-27T20:37:04.270Z,2.30
2018-08-27T20:39:31.911Z,2.00
2018-08-27T20:41:59.554Z,2.53
2018-08-27T20:44:27.166Z,1.80
2018-08-27T20:46:54.834Z,2.10
2018-08-27T20:49:22.478Z,1.90
2018-08-27T20:51:50.061Z,1.77
2018-08-27T20:54:17.683Z,1.30
2018-08-27T20:56:45.297Z,2.07
2018-08-27T20:59:12.918Z,1.60
2018-08-27T21:01:40.527Z,1.80
2018-08-27T21:04:08.391Z,1.83
2018-08-27T21:06:36.015Z,1.60
2018-08-27T21:09:03.748Z,1.50
2018-08-27T21:11:31.351Z,1.63
2018-08-27T21:14:10.022Z,1.33
2018-08-27T21:16:38.001Z,1.50
2018-08-27T21:19:05.629Z,1.87
2018-08-27T21:21:33.205Z,1.83
2018-08-27T21:24:00.867Z,1.60
2018-08-27T21:26:28.423Z,1.70
2018-08-27T21:28:56.033Z,1.60
2018-08-27T21:31:23.633Z,1.20
2018-08-27T21:33:51.196Z,1.70
2018-08-27T21:36:18.749Z,1.27
2018-08-27T21:38:46.282Z,1.40
2018-08-27T21:41:13.881Z,1.80
2018-08-27T21:43:41.475Z,1.60
2018-08-27T21:46:09.056Z,1.43
2018-08-27T21:48:36.598Z,1.60
2018-08-27T21:51:04.327Z,2.13
2018-08-27T21:53:31.894Z,1.70
2018-08-27T21:55:59.453Z,1.40
2018-08-27T21:58:27.024Z,2.10
2018-08-27T22:00:54.656Z,1.33
2018-08-27T22:03:27.678Z,1.97
2018-08-27T22:05:56.187Z,1.70
2018-08-27T22:08:24.364Z,2.00
2018-08-27T22:10:51.929Z,1.87
2018-08-27T22:13:19.478Z,1.70
2018-08-27T22:15:47.060Z,1.53
2018-08-27T22:18:14.612Z,1.93
2018-08-27T22:20:42.204Z,1.43
2018-08-27T22:23:10.587Z,1.83
2018-08-27T22:25:38.294Z,1.77
2018-08-27T22:28:05.948Z,1.60
2018-08-27T22:30:33.658Z,1.97
2018-08-27T22:33:01.211Z,1.60
2018-08-27T22:35:28.765Z,1.80
2018-08-27T22:37:56.344Z,1.87
2018-08-27T22:40:23.888Z,2.23
2018-08-27T22:42:51.487Z,1.90
2018-08-27T22:45:19.028Z,1.60
2018-08-27T22:47:46.633Z,1.80
2018-08-27T22:50:14.245Z,1.67
2018-08-27T22:52:41.862Z,1.27
2018-08-27T22:55:09.399Z,1.40
2018-08-27T22:57:36.975Z,2.00
2018-08-27T23:00:04.633Z,2.00
2018-08-27T23:02:37.878Z,2.00
2018-08-27T23:05:06.283Z,1.63
2018-08-27T23:07:33.896Z,1.30
2018-08-27T23:10:01.433Z,1.57
2018-08-27T23:12:28.959Z,1.97
2018-08-27T23:14:56.565Z,1.43
2018-08-27T23:17:24.095Z,1.50
2018-08-27T23:19:51.667Z,1.30
2018-08-27T23:22:19.181Z,1.47
2018-08-27T23:24:46.783Z,1.97
2018-08-27T23:27:14.335Z,1.50
2018-08-27T23:29:41.865Z,1.50
2018-08-27T23:32:09.420Z,2.37
2018-08-27T23:34:36.968Z,1.80
2018-08-27T23:37:04.695Z,1.43
2018-08-27T23:39:32.247Z,2.03
2018-08-27T23:41:59.790Z,1.20
2018-08-27T23:44:27.326Z,1.23
2018-08-27T23:46:54.875Z,1.27
2018-08-27T23:49:22.447Z,1.37
2018-08-27T23:51:49.980Z,1.53
2018-08-27T23:54:17.523Z,1.70
2018-08-27T23:56:45.088Z,1.73
2018-08-27T23:59:12.644Z,1.43
